createdAt,value
2023-03-03T12:35:36.555Z,13.10
2023-03-03T12:36:36.448Z,14.70
2023-03-03T12:37:36.436Z,14.90
2023-03-03T12:38:36.424Z,14.00
2023-03-03T12:39:36.370Z,14.00
2023-03-03T12:40:36.386Z,14.50
2023-03-03T12:41:36.343Z,15.30
2023-03-03T12:42:36.310Z,13.80
2023-03-03T12:43:36.306Z,13.60
2023-03-03T12:44:36.288Z,13.60
2023-03-03T12:45:36.265Z,13.50
2023-03-03T12:46:36.250Z,14.20
2023-03-03T12:47:36.221Z,13.70
2023-03-03T12:48:36.179Z,13.90
2023-03-03T12:49:42.794Z,14.10
2023-03-03T12:50:36.244Z,13.70
2023-03-03T12:51:36.109Z,13.20
2023-03-03T12:52:36.096Z,13.70
2023-03-03T12:53:36.088Z,13.60
2023-03-03T12:54:37.330Z,13.60
2023-03-03T12:55:36.040Z,14.20
2023-03-03T12:56:36.026Z,13.60
2023-03-03T12:57:35.999Z,13.70
2023-03-03T12:58:35.991Z,13.20
2023-03-03T12:59:35.965Z,13.00
2023-03-03T13:00:36.022Z,13.50
2023-03-03T13:01:35.914Z,13.70
2023-03-03T13:02:35.909Z,14.20
2023-03-03T13:03:43.639Z,13.80
2023-03-03T13:04:35.845Z,14.00
2023-03-03T13:05:35.829Z,13.80
2023-03-03T13:06:35.830Z,12.70
2023-03-03T13:07:35.857Z,13.50
2023-03-03T13:08:35.781Z,14.50
2023-03-03T13:09:35.750Z,13.60
2023-03-03T13:10:35.742Z,13.30
2023-03-03T13:11:35.713Z,13.90
2023-03-03T13:12:35.698Z,13.40
2023-03-03T13:13:35.674Z,14.10
2023-03-03T13:14:35.641Z,13.90
2023-03-03T13:15:38.054Z,14.20
2023-03-03T13:16:41.606Z,14.10
2023-03-03T13:17:35.592Z,12.90
2023-03-03T13:18:35.580Z,13.40
2023-03-03T13:19:35.531Z,14.30
2023-03-03T13:20:35.572Z,13.30
2023-03-03T13:21:35.526Z,14.00
2023-03-03T13:22:35.505Z,13.40
2023-03-03T13:23:35.461Z,13.70
2023-03-03T13:24:35.470Z,14.50
2023-03-03T13:25:35.509Z,15.10
2023-03-03T13:26:35.400Z,13.60
2023-03-03T13:27:35.370Z,14.40
2023-03-03T13:28:35.361Z,14.00
2023-03-03T13:29:35.369Z,14.50
2023-03-03T13:30:35.357Z,14.90
2023-03-03T13:31:35.396Z,15.40
2023-03-03T13:32:35.354Z,15.40
2023-03-03T13:33:35.271Z,16.00
2023-03-03T13:34:35.243Z,15.60
2023-03-03T13:35:35.278Z,15.10
2023-03-03T13:36:35.201Z,15.70
2023-03-03T13:37:35.193Z,15.20
2023-03-03T13:38:35.184Z,14.70
2023-03-03T13:39:35.175Z,15.40
2023-03-03T13:40:35.161Z,15.80
2023-03-03T13:41:35.110Z,16.10
2023-03-03T13:42:35.106Z,14.70
2023-03-03T13:43:35.085Z,16.50
2023-03-03T13:44:35.044Z,17.10
2023-03-03T13:45:35.054Z,16.40
2023-03-03T13:46:35.053Z,16.40
2023-03-03T13:47:34.980Z,17.30
2023-03-03T13:48:35.017Z,16.30
2023-03-03T13:49:34.960Z,16.80
2023-03-03T13:50:34.947Z,18.30
2023-03-03T13:51:34.922Z,17.80
2023-03-03T13:52:34.912Z,18.40
2023-03-03T13:53:34.863Z,21.20
2023-03-03T13:54:34.851Z,21.70
2023-03-03T13:55:34.839Z,22.90
2023-03-03T13:56:34.823Z,22.60
2023-03-03T13:57:34.839Z,23.50
2023-03-03T13:58:34.794Z,24.30
2023-03-03T13:59:34.761Z,23.50
2023-03-03T14:00:36.380Z,24.30
2023-03-03T14:01:34.717Z,22.80
2023-03-03T14:02:34.695Z,23.90
2023-03-03T14:03:34.665Z,24.40
2023-03-03T14:04:34.739Z,26.00
2023-03-03T14:05:34.647Z,25.30
2023-03-03T14:06:35.493Z,26.20
2023-03-03T14:07:34.635Z,26.20
2023-03-03T14:08:34.599Z,25.90
2023-03-03T14:09:34.588Z,25.30
2023-03-03T14:10:34.556Z,27.20
2023-03-03T14:11:34.579Z,25.70
2023-03-03T14:12:34.512Z,25.40
2023-03-03T14:13:34.482Z,26.80
2023-03-03T14:14:34.527Z,26.60
2023-03-03T14:15:34.435Z,28.00
2023-03-03T14:16:34.480Z,26.90
2023-03-03T14:17:34.415Z,26.10
2023-03-03T14:18:34.415Z,24.60
2023-03-03T14:19:34.410Z,25.60
2023-03-03T14:20:34.466Z,26.40
2023-03-03T14:21:34.420Z,24.50
2023-03-03T14:22:34.316Z,24.70
2023-03-03T14:23:34.362Z,26.80
2023-03-03T14:24:34.304Z,26.70
2023-03-03T14:25:35.921Z,26.50
2023-03-03T14:26:34.289Z,25.00
2023-03-03T14:37:30.008Z,23.90
2023-03-03T14:38:29.979Z,24.50
2023-03-03T14:39:29.956Z,24.40
2023-03-03T14:40:29.976Z,23.80
2023-03-03T14:41:29.913Z,25.10
2023-03-03T14:42:29.940Z,22.40
2023-03-03T14:43:29.879Z,23.50
2023-03-03T14:44:29.870Z,23.80
2023-03-03T14:45:30.778Z,22.70
2023-03-03T14:46:29.873Z,21.90
2023-03-03T14:47:29.842Z,22.20
2023-03-03T14:48:32.337Z,23.10
2023-03-03T14:49:29.765Z,23.50
2023-03-03T14:50:29.778Z,23.60
2023-03-03T14:51:29.748Z,22.70
2023-03-03T14:52:29.761Z,21.70
2023-03-03T14:53:29.718Z,23.60
2023-03-03T14:54:29.685Z,23.60
2023-03-03T14:55:29.700Z,23.40
2023-03-03T14:56:29.672Z,24.10
2023-03-03T14:57:29.664Z,25.00
2023-03-03T14:58:29.639Z,25.90
